Time;durP1;ratioP1;P1;durP2;ratioP2;P2;SDS_P1;SDS_P2;PMS_P1;PMS_P2;Temp;Humidity;BMP_temperature;BMP_pressure;BME280_temperature;BME280_humidity;BME280_pressure;Samples;Min_cycle;Max_cycle;Signal;HPM_P1;HPM_P2
2022/09/13 00:00:42;;;;;;;14.10;5.97;;;11.90;99.90;;;;;;5113922;28;20118;-73
2022/09/13 00:03:09;;;;;;;8.65;6.22;;;11.90;99.90;;;;;;5112103;28;20047;-73
2022/09/13 00:05:38;;;;;;;11.25;5.88;;;11.90;99.90;;;;;;5101034;28;20522;-73
2022/09/13 00:08:06;;;;;;;12.70;6.45;;;11.90;99.90;;;;;;5113222;28;20044;-73
2022/09/13 00:10:34;;;;;;;11.38;5.93;;;11.90;99.90;;;;;;5113356;28;20387;-73
2022/09/13 00:13:04;;;;;;;14.15;6.82;;;11.80;99.90;;;;;;5113382;28;20463;-74
2022/09/13 00:15:31;;;;;;;12.35;6.25;;;11.70;99.90;;;;;;5113334;28;20071;-73
2022/09/13 00:17:58;;;;;;;11.35;6.03;;;11.70;99.90;;;;;;5115952;28;20492;-73
2022/09/13 00:20:26;;;;;;;12.20;5.85;;;11.70;99.90;;;;;;5117502;28;20043;-73
2022/09/13 00:22:53;;;;;;;8.40;6.47;;;11.80;99.90;;;;;;5098466;28;20521;-74
2022/09/13 00:25:21;;;;;;;10.88;5.63;;;11.80;99.90;;;;;;5098465;28;20078;-74
2022/09/13 00:27:48;;;;;;;15.50;6.10;;;11.80;99.90;;;;;;5093200;28;20040;-74
2022/09/13 00:30:17;;;;;;;10.95;6.28;;;11.70;99.90;;;;;;5096280;28;20051;-73
2022/09/13 00:32:44;;;;;;;11.52;6.57;;;11.50;99.90;;;;;;5116517;28;20043;-73
2022/09/13 00:35:11;;;;;;;14.00;6.78;;;11.50;99.90;;;;;;5098384;28;20444;-73
2022/09/13 00:37:39;;;;;;;14.32;6.50;;;11.50;99.90;;;;;;5118066;28;20039;-73
2022/09/13 00:40:07;;;;;;;12.98;6.20;;;11.50;99.90;;;;;;5119999;28;20057;-73
2022/09/13 00:42:34;;;;;;;11.48;6.05;;;11.50;99.90;;;;;;5120846;28;20054;-73
2022/09/13 00:45:03;;;;;;;9.93;5.43;;;11.50;99.90;;;;;;5120868;28;20059;-73
2022/09/13 00:47:37;;;;;;;11.30;5.78;;;11.50;99.90;;;;;;5120706;28;20039;-73
2022/09/13 00:50:11;;;;;;;11.75;6.50;;;11.50;99.90;;;;;;5098241;28;20043;-73
2022/09/13 00:52:40;;;;;;;11.02;6.50;;;11.40;99.90;;;;;;5097779;28;20117;-73
2022/09/13 00:55:13;;;;;;;12.10;7.70;;;11.20;99.90;;;;;;5116230;28;20139;-73
2022/09/13 00:57:43;;;;;;;10.40;7.30;;;11.20;99.90;;;;;;5098115;28;20537;-73
2022/09/13 01:00:13;;;;;;;14.82;7.47;;;11.20;99.90;;;;;;5117506;28;20036;-73
2022/09/13 01:02:46;;;;;;;9.63;6.78;;;11.20;99.90;;;;;;5116449;28;20039;-74
2022/09/13 01:05:15;;;;;;;12.40;6.10;;;11.30;99.90;;;;;;5117325;27;20081;-73
2022/09/13 01:07:43;;;;;;;7.32;5.70;;;11.30;99.90;;;;;;5124037;27;20040;-73
2022/09/13 01:10:11;;;;;;;10.88;6.53;;;11.30;99.90;;;;;;5116390;28;20127;-73
2022/09/13 01:12:45;;;;;;;8.75;5.90;;;11.30;99.90;;;;;;5116123;28;20517;-73
2022/09/13 01:15:13;;;;;;;8.77;6.30;;;11.20;99.90;;;;;;5116122;28;20043;-73
2022/09/13 01:17:43;;;;;;;9.52;6.63;;;11.20;99.90;;;;;;5097634;28;20490;-73
2022/09/13 01:20:12;;;;;;;11.82;6.00;;;11.10;99.90;;;;;;5116014;28;20039;-73
2022/09/13 01:23:12;;;;;;;11.13;6.40;;;11.10;99.90;;;;;;5114751;28;20035;-73
2022/09/13 01:26:33;;;;;;;10.15;6.40;;;11.20;99.90;;;;;;5096369;28;20051;-73
2022/09/13 01:29:21;;;;;;;14.85;7.68;;;11.20;99.90;;;;;;5049155;28;20095;-73
2022/09/13 01:31:59;;;;;;;9.38;6.18;;;11.20;99.90;;;;;;5053346;28;20048;-73
2022/09/13 01:34:35;;;;;;;8.88;5.95;;;11.20;99.90;;;;;;5084276;28;20055;-73
2022/09/13 01:37:20;;;;;;;;;;;11.20;99.90;;;;;;5114489;28;20040;-73
2022/09/13 01:40:04;;;;;;;16.73;8.75;;;11.10;99.90;;;;;;5115427;28;19920;-73
2022/09/13 01:42:46;;;;;;;13.55;6.30;;;11.10;99.90;;;;;;5115397;28;20067;-73
2022/09/13 01:45:22;;;;;;;14.15;6.25;;;11.10;99.90;;;;;;5115357;28;20047;-73
2022/09/13 01:47:55;;;;;;;10.43;6.53;;;11.10;99.90;;;;;;5116344;28;20039;-73
2022/09/13 01:50:33;;;;;;;13.77;6.50;;;11.10;99.90;;;;;;5115199;28;20462;-73
2022/09/13 01:53:06;;;;;;;16.17;7.47;;;11.10;99.90;;;;;;5115706;28;20047;-73
2022/09/13 01:55:38;;;;;;;10.77;6.57;;;11.00;99.90;;;;;;5115436;28;20047;-72
2022/09/13 01:58:15;;;;;;;9.07;5.97;;;11.00;99.90;;;;;;5114864;28;20080;-73
2022/09/13 02:00:48;;;;;;;13.32;6.68;;;10.90;99.90;;;;;;5115164;28;20039;-73
2022/09/13 02:03:21;;;;;;;9.55;6.35;;;11.00;99.90;;;;;;5096656;28;20491;-73
2022/09/13 02:05:54;;;;;;;10.35;6.20;;;11.00;99.90;;;;;;5096740;28;20410;-73
2022/09/13 02:08:28;;;;;;;14.23;6.30;;;11.00;99.90;;;;;;5114174;28;20490;-73
2022/09/13 02:11:00;;;;;;;10.00;6.28;;;11.00;99.90;;;;;;5115047;28;20414;-73
2022/09/13 02:13:33;;;;;;;10.60;6.38;;;10.90;99.90;;;;;;5097172;28;20395;-72
2022/09/13 02:16:07;;;;;;;13.98;7.68;;;10.80;99.90;;;;;;5115760;28;20065;-72
2022/09/13 02:18:39;;;;;;;12.10;7.45;;;10.80;99.90;;;;;;5114789;28;20266;-72
2022/09/13 02:21:12;;;;;;;15.48;7.45;;;10.80;99.90;;;;;;5114821;28;20044;-72
2022/09/13 02:23:44;;;;;;;13.23;7.78;;;10.80;99.90;;;;;;5114122;28;20039;-72
2022/09/13 02:26:14;;;;;;;9.98;6.28;;;10.80;99.90;;;;;;5107284;28;20047;-72
2022/09/13 02:28:47;;;;;;;12.88;7.32;;;10.90;99.90;;;;;;5093107;28;20040;-72
2022/09/13 02:31:18;;;;;;;8.40;6.72;;;10.80;99.90;;;;;;5094126;28;20084;-72
2022/09/13 02:33:52;;;;;;;9.60;6.45;;;10.80;99.90;;;;;;5097136;28;20379;-73
2022/09/13 02:36:23;;;;;;;12.20;6.32;;;10.80;99.90;;;;;;5114295;28;20060;-73
2022/09/13 02:38:55;;;;;;;14.75;7.53;;;10.80;99.90;;;;;;5114376;28;20051;-72
2022/09/13 02:41:30;;;;;;;8.48;6.20;;;10.70;99.90;;;;;;5096153;28;20067;-72
2022/09/13 02:44:02;;;;;;;11.20;6.75;;;10.70;99.90;;;;;;5095760;28;20052;-73
2022/09/13 02:46:58;;;;;;;12.85;6.57;;;10.60;99.90;;;;;;5113935;28;20090;-74
2022/09/13 02:49:31;;;;;;;10.10;6.82;;;10.70;99.90;;;;;;5106099;28;20059;-73
2022/09/13 02:52:07;;;;;;;13.15;6.22;;;10.70;99.90;;;;;;5113969;28;20058;-73
2022/09/13 02:54:41;;;;;;;13.25;7.47;;;10.70;99.90;;;;;;5113581;28;20070;-73
2022/09/13 02:57:15;;;;;;;10.55;6.60;;;10.70;99.90;;;;;;5113942;28;20035;-73
2022/09/13 02:59:42;;;;;;;10.20;6.40;;;10.70;99.90;;;;;;5114517;28;20042;-73
2022/09/13 03:02:14;;;;;;;15.35;6.72;;;10.70;99.90;;;;;;5114001;28;20127;-73
2022/09/13 03:04:42;;;;;;;13.57;6.68;;;10.70;99.90;;;;;;5113616;28;20035;-73
2022/09/13 03:07:11;;;;;;;9.45;6.40;;;10.70;99.90;;;;;;5095266;28;20101;-73
2022/09/13 03:09:43;;;;;;;15.00;6.57;;;10.70;99.90;;;;;;5095462;28;20043;-73
2022/09/13 03:12:43;;;;;;;11.05;6.57;;;10.70;99.90;;;;;;5094736;28;20043;-73
2022/09/13 03:15:21;;;;;;;13.55;7.20;;;10.70;99.90;;;;;;5098578;28;20050;-73
2022/09/13 03:18:00;;;;;;;15.82;8.43;;;10.60;99.90;;;;;;5114736;27;20398;-73
2022/09/13 03:20:40;;;;;;;12.57;8.10;;;10.60;99.90;;;;;;5112765;28;20075;-73
2022/09/13 03:23:31;;;;;;;13.75;7.78;;;10.60;99.90;;;;;;5126545;28;20065;-72
2022/09/13 03:26:20;;;;;;;12.50;7.57;;;10.50;99.90;;;;;;5095746;28;20051;-72
2022/09/13 03:29:00;;;;;;;14.95;7.25;;;10.50;99.90;;;;;;5107337;28;20096;-72
2022/09/13 03:31:34;;;;;;;8.63;6.60;;;10.40;99.90;;;;;;5101109;28;20441;-73
2022/09/13 03:34:08;;;;;;;9.73;6.80;;;10.40;99.90;;;;;;5110644;28;20563;-73
2022/09/13 03:36:42;;;;;;;11.90;8.38;;;10.50;99.90;;;;;;5110296;28;20040;-73
2022/09/13 03:39:15;;;;;;;16.15;8.73;;;10.40;99.90;;;;;;5113447;28;20398;-73
2022/09/13 03:41:46;;;;;;;10.00;7.07;;;10.40;99.90;;;;;;5113576;28;20050;-72
2022/09/13 03:44:17;;;;;;;12.05;6.45;;;10.40;99.90;;;;;;5113207;28;20084;-73
2022/09/13 03:46:47;;;;;;;12.35;6.43;;;10.40;99.90;;;;;;5113499;28;20051;-73
2022/09/13 03:49:16;;;;;;;10.48;6.35;;;10.40;99.90;;;;;;5113863;28;20433;-73
2022/09/13 03:51:48;;;;;;;10.90;6.65;;;10.30;99.90;;;;;;5114354;28;20043;-73
2022/09/13 03:54:19;;;;;;;8.10;6.45;;;10.30;99.90;;;;;;5116595;28;20039;-73
2022/09/13 03:57:11;;;;;;;11.63;7.20;;;10.30;99.90;;;;;;5117237;28;20042;-73
2022/09/13 03:59:41;;;;;;;13.93;7.78;;;10.30;99.90;;;;;;5111225;27;20496;-73
2022/09/13 04:02:10;;;;;;;18.85;8.05;;;10.20;99.90;;;;;;5117646;28;20040;-72
2022/09/13 04:04:38;;;;;;;10.43;6.95;;;10.20;99.90;;;;;;5117396;28;20044;-72
2022/09/13 04:07:07;;;;;;;14.77;7.60;;;10.20;99.90;;;;;;5117188;28;20047;-73
2022/09/13 04:09:34;;;;;;;12.77;7.97;;;10.30;99.90;;;;;;5117485;28;20058;-72
2022/09/13 04:12:02;;;;;;;12.25;7.05;;;10.30;99.90;;;;;;5121231;27;20531;-72
2022/09/13 04:14:29;;;;;;;13.75;7.70;;;10.30;99.90;;;;;;5138029;27;20035;-72
2022/09/13 04:16:58;;;;;;;10.98;7.32;;;10.30;99.90;;;;;;5137981;27;20110;-72
2022/09/13 04:19:26;;;;;;;13.55;7.95;;;10.20;99.90;;;;;;5137725;27;20039;-73
2022/09/13 04:21:55;;;;;;;12.82;7.30;;;10.20;99.90;;;;;;5137602;27;20039;-73
2022/09/13 04:24:26;;;;;;;15.68;8.35;;;10.20;99.90;;;;;;5137219;27;20096;-73
2022/09/13 04:26:54;;;;;;;18.05;8.20;;;10.20;99.90;;;;;;5119038;27;20063;-72
2022/09/13 04:29:23;;;;;;;13.20;7.07;;;10.20;99.90;;;;;;5116901;28;20051;-72
2022/09/13 04:31:52;;;;;;;12.25;7.38;;;10.10;99.90;;;;;;5098650;28;20044;-72
2022/09/13 04:34:21;;;;;;;12.00;6.57;;;10.20;99.90;;;;;;5116092;28;20044;-73
2022/09/13 04:36:48;;;;;;;12.93;7.20;;;10.20;99.90;;;;;;5116640;28;20069;-73
2022/09/13 04:39:16;;;;;;;15.65;7.60;;;10.30;99.90;;;;;;5116687;28;20067;-73
2022/09/13 04:41:47;;;;;;;12.63;7.82;;;10.30;99.90;;;;;;5116381;28;20513;-73
2022/09/13 04:44:15;;;;;;;14.10;7.30;;;10.40;99.90;;;;;;5116125;28;20056;-72
2022/09/13 04:46:46;;;;;;;9.88;7.60;;;10.40;99.90;;;;;;5116420;28;20043;-72
2022/09/13 04:49:14;;;;;;;10.30;6.95;;;10.40;99.90;;;;;;5097845;28;20494;-73
2022/09/13 04:51:42;;;;;;;14.07;7.32;;;10.50;99.90;;;;;;5116181;27;20118;-73
2022/09/13 04:54:10;;;;;;;12.15;7.20;;;10.40;99.90;;;;;;5119802;27;20121;-73
2022/09/13 04:56:37;;;;;;;15.27;7.38;;;10.50;99.90;;;;;;5114009;28;20040;-72
2022/09/13 04:59:06;;;;;;;12.98;8.15;;;10.60;99.90;;;;;;5115967;28;20504;-72
2022/09/13 05:01:34;;;;;;;13.48;7.40;;;10.70;99.90;;;;;;5112663;28;20478;-72
2022/09/13 05:04:01;;;;;;;30.95;9.65;;;10.70;99.90;;;;;;5080088;28;20052;-72
2022/09/13 05:06:29;;;;;;;28.05;9.63;;;10.80;99.90;;;;;;5114645;28;20467;-73
2022/09/13 05:08:57;;;;;;;23.48;9.10;;;10.90;99.90;;;;;;5116007;28;20114;-72
2022/09/13 05:11:26;;;;;;;16.10;8.57;;;10.90;99.90;;;;;;5115816;28;20035;-73
2022/09/13 05:13:54;;;;;;;22.63;8.82;;;10.90;99.90;;;;;;5115690;28;20482;-72
2022/09/13 05:16:24;;;;;;;17.50;9.05;;;10.90;99.90;;;;;;5115436;28;20048;-72
2022/09/13 05:18:52;;;;;;;18.13;8.32;;;11.10;99.90;;;;;;5115846;27;20044;-73
2022/09/13 05:21:20;;;;;;;16.02;8.45;;;11.20;99.90;;;;;;5105531;28;20404;-72
2022/09/13 05:23:49;;;;;;;23.15;9.20;;;11.30;99.90;;;;;;5085177;28;20044;-72
2022/09/13 05:26:17;;;;;;;12.82;8.48;;;11.30;99.90;;;;;;5106296;28;20082;-72
2022/09/13 05:28:44;;;;;;;38.17;10.15;;;11.40;99.90;;;;;;5115807;28;20096;-72
2022/09/13 05:31:16;;;;;;;29.67;10.13;;;11.40;99.90;;;;;;5115355;28;20052;-73
2022/09/13 05:33:46;;;;;;;19.50;11.02;;;11.50;99.90;;;;;;5115319;28;20043;-73
2022/09/13 05:36:13;;;;;;;13.50;8.90;;;11.60;99.90;;;;;;5115209;28;20055;-72
2022/09/13 05:38:41;;;;;;;13.73;8.77;;;11.60;99.90;;;;;;5115868;28;20040;-73
2022/09/13 05:41:08;;;;;;;16.38;8.93;;;11.50;99.90;;;;;;5115293;28;20040;-73
2022/09/13 05:43:36;;;;;;;20.13;8.75;;;11.70;99.90;;;;;;5114962;28;20428;-73
2022/09/13 05:46:06;;;;;;;13.70;7.55;;;11.90;99.90;;;;;;5115003;28;20104;-73
2022/09/13 05:48:34;;;;;;;18.70;7.72;;;12.20;99.90;;;;;;5096793;28;20490;-73
2022/09/13 05:51:09;;;;;;;13.75;7.95;;;12.50;99.90;;;;;;5115000;28;20553;-73
2022/09/13 05:53:38;;;;;;;15.45;8.18;;;12.60;99.90;;;;;;5115393;28;20108;-73
2022/09/13 05:56:06;;;;;;;16.33;7.65;;;12.80;99.90;;;;;;5098440;28;20363;-73
2022/09/13 05:58:34;;;;;;;17.27;7.03;;;13.10;99.90;;;;;;5115500;28;20059;-73
2022/09/13 06:01:02;;;;;;;13.07;6.93;;;13.40;99.90;;;;;;5115082;28;20127;-73
2022/09/13 06:03:29;;;;;;;15.95;7.43;;;13.50;99.90;;;;;;5096343;28;20527;-73
2022/09/13 06:05:58;;;;;;;13.30;7.00;;;13.70;99.90;;;;;;5114624;28;20483;-73
2022/09/13 06:08:28;;;;;;;17.25;8.07;;;14.10;99.90;;;;;;5096761;28;20048;-72
2022/09/13 06:10:57;;;;;;;20.20;7.18;;;14.20;99.90;;;;;;5115037;28;20082;-72
2022/09/13 06:13:25;;;;;;;16.42;9.80;;;14.40;99.90;;;;;;5114257;28;20398;-71
2022/09/13 06:15:54;;;;;;;12.70;7.22;;;14.50;99.90;;;;;;5114317;28;20505;-71
2022/09/13 06:18:22;;;;;;;15.95;7.97;;;14.40;99.90;;;;;;5114721;28;20121;-74
2022/09/13 06:20:50;;;;;;;14.02;8.18;;;14.50;99.90;;;;;;5114487;28;20126;-72
2022/09/13 06:23:17;;;;;;;17.70;8.32;;;14.80;99.90;;;;;;5114542;28;20134;-72
2022/09/13 06:25:46;;;;;;;23.13;7.93;;;15.10;99.90;;;;;;5105646;28;20036;-72
2022/09/13 06:28:14;;;;;;;16.33;6.88;;;15.40;99.90;;;;;;5094044;28;20048;-71
2022/09/13 06:30:41;;;;;;;11.93;7.03;;;15.70;99.90;;;;;;5094193;28;20043;-71
2022/09/13 06:33:08;;;;;;;15.88;7.38;;;15.80;99.90;;;;;;5100285;28;20047;-72
2022/09/13 06:35:37;;;;;;;14.10;7.03;;;15.90;99.90;;;;;;5114520;28;20067;-70
2022/09/13 06:38:04;;;;;;;15.02;7.25;;;15.70;99.90;;;;;;5114542;28;20055;-72
2022/09/13 06:40:32;;;;;;;12.38;6.70;;;15.80;99.90;;;;;;5114950;28;20498;-71
2022/09/13 06:43:00;;;;;;;19.25;8.57;;;15.90;99.90;;;;;;5114335;28;20071;-72
2022/09/13 06:45:28;;;;;;;14.05;8.02;;;16.10;99.90;;;;;;5113842;28;20050;-71
2022/09/13 06:47:55;;;;;;;11.82;7.10;;;16.50;99.90;;;;;;5114010;28;20490;-72
2022/09/13 06:50:23;;;;;;;13.13;6.93;;;16.90;99.90;;;;;;5098848;28;20104;-71
2022/09/13 06:52:50;;;;;;;16.77;7.40;;;16.90;99.90;;;;;;5102922;28;20044;-73
2022/09/13 06:55:17;;;;;;;19.20;9.85;;;16.60;99.90;;;;;;5123779;27;20967;-71
2022/09/13 06:57:45;;;;;;;20.52;9.23;;;16.90;99.90;;;;;;5115933;27;20055;-72
2022/09/13 07:00:16;;;;;;;17.67;8.57;;;17.30;99.90;;;;;;5134041;27;20039;-72
2022/09/13 07:02:43;;;;;;;19.35;7.70;;;17.70;99.90;;;;;;5134228;27;20070;-73
2022/09/13 07:05:10;;;;;;;17.73;7.50;;;17.80;99.90;;;;;;5134558;27;20035;-72
2022/09/13 07:07:38;;;;;;;17.50;8.07;;;17.90;99.90;;;;;;5115718;28;20138;-71
2022/09/13 07:10:06;;;;;;;14.82;7.53;;;17.70;99.90;;;;;;5134434;27;20039;-73
2022/09/13 07:12:33;;;;;;;12.18;6.32;;;17.40;99.90;;;;;;5133689;27;20443;-72
2022/09/13 07:15:01;;;;;;;18.23;8.13;;;17.30;99.90;;;;;;5134402;27;20043;-71
2022/09/13 07:17:29;;;;;;;16.55;9.50;;;17.40;99.90;;;;;;5134698;27;20047;-73
2022/09/13 07:19:57;;;;;;;17.58;7.40;;;17.70;99.90;;;;;;5134372;27;20465;-73
2022/09/13 07:22:26;;;;;;;19.05;9.45;;;18.20;99.90;;;;;;5133750;27;20035;-73
2022/09/13 07:24:53;;;;;;;18.63;8.10;;;18.50;99.90;;;;;;5131997;27;20099;-73
2022/09/13 07:27:21;;;;;;;13.73;7.65;;;18.80;99.90;;;;;;5112627;28;20555;-73
2022/09/13 07:29:48;;;;;;;14.38;6.50;;;19.00;99.90;;;;;;5113549;28;20089;-72
2022/09/13 07:32:15;;;;;;;13.45;6.13;;;19.00;99.90;;;;;;5113194;28;20043;-73
2022/09/13 07:34:44;;;;;;;15.48;6.85;;;19.20;99.90;;;;;;5112675;28;20051;-72
2022/09/13 07:37:11;;;;;;;13.23;6.07;;;19.40;99.90;;;;;;5113064;28;20036;-72
2022/09/13 07:39:38;;;;;;;10.75;5.43;;;19.30;99.90;;;;;;5112840;28;20092;-73
2022/09/13 07:42:06;;;;;;;8.68;6.07;;;19.50;99.90;;;;;;5113113;28;20406;-73
2022/09/13 07:44:33;;;;;;;12.18;6.60;;;19.50;99.90;;;;;;5094826;28;20122;-73
2022/09/13 07:47:00;;;;;;;10.20;5.32;;;19.50;99.90;;;;;;5113311;28;20043;-72
2022/09/13 07:49:28;;;;;;;11.13;5.95;;;19.60;99.90;;;;;;5095614;28;20073;-74
2022/09/13 07:51:57;;;;;;;9.65;5.40;;;19.70;99.90;;;;;;5095594;28;20055;-73
2022/09/13 07:54:24;;;;;;;9.45;4.50;;;20.00;99.90;;;;;;5112682;28;20389;-74
2022/09/13 07:56:51;;;;;;;8.65;4.85;;;20.00;99.90;;;;;;5113839;28;20487;-72
2022/09/13 07:59:19;;;;;;;9.38;5.55;;;20.00;99.90;;;;;;5119824;28;20039;-72
2022/09/13 08:01:48;;;;;;;7.45;4.63;;;20.10;99.90;;;;;;5116141;28;20127;-71
2022/09/13 08:04:17;;;;;;;16.90;6.57;;;20.20;99.90;;;;;;5112633;28;20495;-73
2022/09/13 08:06:45;;;;;;;8.35;4.72;;;20.20;99.90;;;;;;5113190;28;20040;-74
2022/09/13 08:09:15;;;;;;;8.68;4.50;;;20.30;99.90;;;;;;5113807;28;20097;-73
2022/09/13 08:11:44;;;;;;;15.73;5.80;;;20.50;99.90;;;;;;5113646;28;20039;-73
2022/09/13 08:14:14;;;;;;;8.48;4.63;;;20.70;99.90;;;;;;5096159;28;20082;-72
2022/09/13 08:16:41;;;;;;;8.00;4.20;;;20.70;99.90;;;;;;5095202;28;20047;-73
2022/09/13 08:19:13;;;;;;;9.68;4.43;;;20.80;99.90;;;;;;5113255;28;20044;-72
2022/09/13 08:21:42;;;;;;;7.45;5.13;;;20.90;99.90;;;;;;5113197;28;20039;-72
2022/09/13 08:24:16;;;;;;;7.20;4.53;;;20.80;99.90;;;;;;5112636;28;20052;-72
2022/09/13 08:26:44;;;;;;;8.60;6.03;;;20.90;99.90;;;;;;5094491;28;20048;-72
2022/09/13 08:29:12;;;;;;;9.32;5.78;;;21.00;99.90;;;;;;5113001;28;20039;-72
2022/09/13 08:31:40;;;;;;;10.70;5.05;;;21.00;99.90;;;;;;5094592;28;20047;-72
2022/09/13 08:34:11;;;;;;;14.15;5.60;;;21.20;99.90;;;;;;5111395;28;20126;-72
2022/09/13 08:36:39;;;;;;;9.05;5.47;;;21.30;99.90;;;;;;5113020;28;20043;-72
2022/09/13 08:39:07;;;;;;;8.63;4.75;;;21.40;99.90;;;;;;5116521;28;20043;-73
2022/09/13 08:42:07;;;;;;;11.90;6.78;;;21.50;99.90;;;;;;5116497;28;20562;-73
2022/09/13 08:44:37;;;;;;;11.95;9.35;;;21.50;99.90;;;;;;5095932;28;20581;-72
2022/09/13 08:47:24;;;;;;;7.40;5.15;;;21.70;99.90;;;;;;5116395;28;20054;-72
2022/09/13 08:49:58;;;;;;;6.95;4.40;;;21.70;99.90;;;;;;5116329;28;20031;-73
2022/09/13 08:52:30;;;;;;;10.35;4.65;;;21.60;99.90;;;;;;5116083;28;20452;-73
2022/09/13 08:54:59;;;;;;;6.78;4.70;;;21.60;99.90;;;;;;5115908;28;20494;-72
2022/09/13 08:57:34;;;;;;;5.28;4.03;;;21.70;99.90;;;;;;5116188;28;20163;-73
2022/09/13 09:00:08;;;;;;;8.10;5.18;;;21.70;99.90;;;;;;5116363;28;20478;-72
2022/09/13 09:02:48;;;;;;;6.05;4.00;;;21.70;99.90;;;;;;5115952;28;20039;-73
2022/09/13 09:05:19;;;;;;;5.85;3.88;;;21.70;99.90;;;;;;5110669;28;20043;-73
2022/09/13 09:07:51;;;;;;;8.02;3.70;;;21.80;99.90;;;;;;5117592;28;20043;-72
2022/09/13 09:10:20;;;;;;;5.95;3.75;;;21.90;99.90;;;;;;5112594;28;20048;-73
2022/09/13 09:12:52;;;;;;;6.05;3.85;;;22.00;99.90;;;;;;5116663;28;20048;-72
2022/09/13 09:15:23;;;;;;;7.85;5.00;;;22.10;99.90;;;;;;5117152;28;20036;-72
2022/09/13 09:17:56;;;;;;;10.35;7.25;;;22.20;99.90;;;;;;5116693;28;20058;-73
2022/09/13 09:20:32;;;;;;;9.10;6.80;;;22.30;99.90;;;;;;5116497;28;20097;-72
2022/09/13 09:23:01;;;;;;;;;;;22.20;99.90;;;;;;5098562;28;20043;-72
2022/09/13 09:25:28;;;;;;;10.13;6.38;;;22.20;99.90;;;;;;5116012;28;19924;-72
2022/09/13 09:27:59;;;;;;;5.53;3.30;;;22.10;99.90;;;;;;5115916;28;20044;-72
2022/09/13 09:30:38;;;;;;;7.05;3.10;;;22.10;99.90;;;;;;5116655;28;20375;-72
2022/09/13 09:33:20;;;;;;;5.82;3.30;;;22.30;99.90;;;;;;5116541;28;20122;-73
2022/09/13 09:35:56;;;;;;;8.05;4.70;;;22.60;99.90;;;;;;5116114;28;20130;-72
2022/09/13 09:38:34;;;;;;;8.57;3.13;;;22.70;99.90;;;;;;5115767;28;20126;-72
2022/09/13 09:41:06;;;;;;;7.90;3.58;;;22.80;99.90;;;;;;5098310;28;20050;-72
2022/09/13 09:43:39;;;;;;;12.25;9.15;;;22.90;99.90;;;;;;5116598;28;20044;-73
2022/09/13 09:46:10;;;;;;;8.85;5.35;;;22.80;99.90;;;;;;5116325;28;20122;-73
2022/09/13 09:48:42;;;;;;;5.85;4.30;;;22.80;99.90;;;;;;5115481;28;20051;-72
2022/09/13 09:51:13;;;;;;;5.22;3.70;;;22.90;99.90;;;;;;5115199;28;20047;-73
2022/09/13 09:53:46;;;;;;;4.70;3.35;;;23.00;99.90;;;;;;5115037;28;20142;-73
2022/09/13 09:56:21;;;;;;;8.55;5.60;;;23.00;99.90;;;;;;5115349;28;20126;-73
2022/09/13 09:58:51;;;;;;;6.00;4.60;;;23.20;99.90;;;;;;5115089;28;20067;-73
2022/09/13 10:01:25;;;;;;;5.50;3.38;;;23.20;99.90;;;;;;5096489;28;20055;-73
2022/09/13 10:04:01;;;;;;;6.60;3.40;;;23.20;98.70;;;;;;5114127;28;20482;-72
2022/09/13 10:06:29;;;;;;;6.35;3.80;;;23.20;99.50;;;;;;5114748;28;20043;-72
2022/09/13 10:09:01;;;;;;;7.10;5.10;;;23.20;99.10;;;;;;5114085;28;20047;-72
2022/09/13 10:11:40;;;;;;;5.97;3.20;;;23.30;99.60;;;;;;5096768;28;20051;-73
2022/09/13 10:14:29;;;;;;;8.32;3.60;;;23.30;99.10;;;;;;5114331;28;20403;-73
2022/09/13 10:17:15;;;;;;;13.18;9.63;;;23.40;98.10;;;;;;5114464;28;20081;-73
2022/09/13 10:19:53;;;;;;;8.15;6.13;;;23.50;97.90;;;;;;5114481;28;20398;-73
2022/09/13 10:22:21;;;;;;;9.27;7.40;;;23.40;97.40;;;;;;5113532;28;20040;-73
2022/09/13 10:24:50;;;;;;;8.32;5.78;;;23.40;97.30;;;;;;5113908;28;20039;-73
2022/09/13 10:27:25;;;;;;;4.13;2.88;;;23.50;97.10;;;;;;5109706;28;20035;-72
2022/09/13 10:29:58;;;;;;;4.90;3.13;;;23.50;92.30;;;;;;5114364;28;20036;-72
2022/09/13 10:32:26;;;;;;;12.52;4.65;;;23.50;91.90;;;;;;5108180;28;20044;-71
2022/09/13 10:34:56;;;;;;;7.68;3.45;;;23.70;92.50;;;;;;5113514;28;20147;-72
2022/09/13 10:37:29;;;;;;;5.43;2.67;;;23.80;91.00;;;;;;5114462;28;20043;-72
2022/09/13 10:40:03;;;;;;;5.80;2.92;;;23.90;90.50;;;;;;5096481;28;20411;-72
2022/09/13 10:42:31;;;;;;;8.65;2.92;;;23.90;90.20;;;;;;5094254;28;20055;-72
2022/09/13 10:45:02;;;;;;;4.63;2.80;;;23.90;90.10;;;;;;5094281;28;20116;-72
2022/09/13 10:47:34;;;;;;;7.40;2.88;;;24.00;88.50;;;;;;5094054;28;20085;-72
2022/09/13 10:50:20;;;;;;;7.78;3.80;;;23.90;89.30;;;;;;5110063;28;20132;-72
2022/09/13 10:52:49;;;;;;;6.78;3.17;;;23.90;89.70;;;;;;5113780;28;20105;-72
2022/09/13 10:55:26;;;;;;;8.02;4.18;;;24.00;89.60;;;;;;5113588;28;20510;-72
2022/09/13 10:57:55;;;;;;;17.27;10.88;;;23.90;88.50;;;;;;5114587;28;20043;-73
2022/09/13 11:00:32;;;;;;;4.50;2.60;;;23.90;88.10;;;;;;5113922;28;20379;-73
2022/09/13 11:03:20;;;;;;;6.82;3.97;;;23.80;87.80;;;;;;5112068;28;20043;-72
2022/09/13 11:05:54;;;;;;;6.53;2.92;;;23.90;88.50;;;;;;5113370;28;20055;-72
2022/09/13 11:08:42;;;;;;;4.68;3.17;;;24.00;87.40;;;;;;5113945;28;20056;-72
2022/09/13 11:11:22;;;;;;;5.75;3.70;;;24.20;87.70;;;;;;5113882;28;20069;-71
2022/09/13 11:14:04;;;;;;;6.00;3.08;;;24.20;85.50;;;;;;5113541;28;20047;-72
2022/09/13 11:16:45;;;;;;;4.65;2.40;;;24.20;83.70;;;;;;5112667;28;20066;-73
2022/09/13 11:20:05;;;;;;;4.15;2.20;;;24.00;83.00;;;;;;5113915;28;20048;-73
2022/09/13 11:23:10;;;;;;;4.55;1.90;;;24.00;82.30;;;;;;5046845;28;20075;-72
2022/09/13 11:25:51;;;;;;;4.65;2.05;;;23.90;83.90;;;;;;5004275;28;20038;-72
2022/09/13 11:28:28;;;;;;;4.93;2.30;;;23.90;83.80;;;;;;5012150;28;20088;-72
2022/09/13 11:31:24;;;;;;;6.30;2.40;;;23.90;83.60;;;;;;5072471;28;20052;-72
2022/09/13 11:34:05;;;;;;;4.03;2.22;;;23.90;83.90;;;;;;5111507;28;20050;-73
2022/09/13 11:36:46;;;;;;;4.53;2.10;;;23.90;84.30;;;;;;5109883;28;20449;-73
2022/09/13 11:39:26;;;;;;;2.70;1.52;;;24.00;83.50;;;;;;5112810;28;20051;-73
2022/09/13 11:42:05;;;;;;;6.35;4.05;;;24.00;83.10;;;;;;5090764;28;20047;-72
2022/09/13 11:45:15;;;;;;;9.27;3.75;;;24.10;83.80;;;;;;5114698;27;20089;-73
2022/09/13 11:47:54;;;;;;;6.70;3.40;;;24.20;83.60;;;;;;5063100;28;20150;-73
2022/09/13 11:50:29;;;;;;;5.68;2.17;;;24.30;83.70;;;;;;5093658;28;20437;-72
2022/09/13 11:53:19;;;;;;;4.78;2.58;;;24.30;83.40;;;;;;5093351;28;20040;-72
2022/09/13 11:55:49;;;;;;;7.28;3.45;;;24.30;83.50;;;;;;5094463;28;20047;-73
2022/09/13 11:58:23;;;;;;;3.22;1.73;;;24.40;83.40;;;;;;5083721;28;20043;-73
2022/09/13 12:00:55;;;;;;;7.82;3.42;;;24.50;82.10;;;;;;5114445;28;20039;-73
2022/09/13 12:03:30;;;;;;;74.45;50.67;;;24.70;84.00;;;;;;5117163;28;20144;-73
2022/09/13 12:06:04;;;;;;;4.05;2.38;;;24.80;84.90;;;;;;5113092;28;20146;-73
2022/09/13 12:08:36;;;;;;;4.65;2.60;;;25.00;82.30;;;;;;5112965;28;20047;-74
2022/09/13 12:11:10;;;;;;;4.97;3.22;;;25.20;81.60;;;;;;5133822;28;20543;-73
2022/09/13 12:13:43;;;;;;;4.28;2.47;;;25.40;80.70;;;;;;5136957;27;20047;-74
2022/09/13 12:16:16;;;;;;;5.40;3.00;;;25.50;80.70;;;;;;5139232;27;20103;-74
2022/09/13 12:18:47;;;;;;;6.18;2.65;;;25.50;81.10;;;;;;5137630;27;20555;-73
2022/09/13 12:21:19;;;;;;;5.60;2.22;;;25.60;80.20;;;;;;5137665;27;20456;-74
2022/09/13 12:23:52;;;;;;;7.25;3.15;;;25.80;79.40;;;;;;5137935;27;20084;-73
2022/09/13 12:26:23;;;;;;;7.65;3.80;;;25.90;81.10;;;;;;5123465;27;20074;-73
2022/09/13 12:28:56;;;;;;;4.30;2.30;;;26.00;79.00;;;;;;5116935;28;20557;-73
2022/09/13 12:31:25;;;;;;;5.63;3.53;;;25.90;77.50;;;;;;5116508;28;20090;-74
2022/09/13 12:33:54;;;;;;;51.00;38.65;;;25.90;78.30;;;;;;5116320;28;20081;-73
2022/09/13 12:36:45;;;;;;;6.40;3.80;;;26.00;79.60;;;;;;5116438;28;20619;-74
2022/09/13 12:40:01;;;;;;;6.07;3.58;;;25.90;77.90;;;;;;5116567;28;20047;-74
2022/09/13 12:42:49;;;;;;;5.15;2.75;;;25.70;77.70;;;;;;5116563;28;20039;-73
2022/09/13 12:45:32;;;;;;;5.38;2.50;;;25.60;78.70;;;;;;5116384;28;20457;-74
2022/09/13 12:48:24;;;;;;;6.03;2.70;;;25.40;78.60;;;;;;5115904;28;20126;-74
2022/09/13 12:51:08;;;;;;;6.30;3.30;;;25.30;80.50;;;;;;5096692;28;20039;-73
2022/09/13 12:54:22;;;;;;;7.38;4.07;;;25.30;80.50;;;;;;5116141;28;20391;-74
2022/09/13 12:57:03;;;;;;;7.40;3.42;;;25.40;80.80;;;;;;5095752;28;20040;-74
2022/09/13 12:59:52;;;;;;;7.15;3.20;;;25.40;80.50;;;;;;5113020;27;20031;-75
2022/09/13 13:02:28;;;;;;;6.72;3.08;;;25.40;79.90;;;;;;5121011;27;20494;-75
2022/09/13 13:04:57;;;;;;;;;;;25.40;79.70;;;;;;5120068;27;20039;-73
2022/09/13 13:07:24;;;;;;;7.38;3.17;;;25.50;79.90;;;;;;5115126;28;20014;-73
2022/09/13 13:09:56;;;;;;;5.40;3.13;;;25.40;79.70;;;;;;5114584;27;20047;-74